createdAt,value
2023-03-15T00:01:10.614Z,10.30
2023-03-15T00:03:37.174Z,10.30
2023-03-15T00:06:03.688Z,10.30
2023-03-15T00:08:30.155Z,10.30
2023-03-15T00:10:56.628Z,10.40
2023-03-15T00:13:23.082Z,10.30
2023-03-15T00:15:49.611Z,10.30
2023-03-15T00:18:16.109Z,10.30
2023-03-15T00:20:42.594Z,10.30
2023-03-15T00:23:09.092Z,10.30
2023-03-15T00:25:35.569Z,10.30
2023-03-15T00:28:02.065Z,10.30
2023-03-15T00:30:28.542Z,10.30
2023-03-15T00:32:55.049Z,10.30
2023-03-15T00:35:21.533Z,10.30
2023-03-15T00:37:48.011Z,10.30
2023-03-15T00:40:14.497Z,10.30
2023-03-15T00:42:40.978Z,10.30
2023-03-15T00:45:07.467Z,10.30
2023-03-15T00:47:33.943Z,10.30
2023-03-15T00:50:00.516Z,10.30
2023-03-15T00:52:26.987Z,10.30
2023-03-15T00:54:53.489Z,10.40
2023-03-15T00:57:20.091Z,10.30
2023-03-15T00:59:46.586Z,10.30
2023-03-15T01:02:13.074Z,10.30
2023-03-15T01:04:39.535Z,10.30
2023-03-15T01:07:10.283Z,10.30
2023-03-15T01:09:36.759Z,10.30
2023-03-15T01:12:03.254Z,10.30
2023-03-15T01:14:29.738Z,10.30
2023-03-15T01:16:56.219Z,10.30
2023-03-15T01:19:22.707Z,10.20
2023-03-15T01:21:49.190Z,10.20
2023-03-15T01:24:15.657Z,10.30
2023-03-15T01:26:42.125Z,10.30
2023-03-15T01:29:08.590Z,10.30
2023-03-15T01:31:35.156Z,10.20
2023-03-15T01:34:01.657Z,10.30
2023-03-15T01:36:28.318Z,10.20
2023-03-15T01:38:54.789Z,10.20
2023-03-15T01:41:21.283Z,10.20
2023-03-15T01:43:47.758Z,10.20
2023-03-15T01:46:14.230Z,10.20
2023-03-15T01:48:40.726Z,10.20
2023-03-15T01:51:07.189Z,10.20
2023-03-15T01:53:33.671Z,10.20
2023-03-15T01:56:00.165Z,10.20
2023-03-15T01:58:26.632Z,10.20
2023-03-15T02:00:58.398Z,10.20
2023-03-15T02:03:24.910Z,10.20
2023-03-15T02:05:51.386Z,10.20
2023-03-15T02:08:17.869Z,10.20
2023-03-15T02:10:44.344Z,10.20
2023-03-15T02:13:10.816Z,10.20
2023-03-15T02:15:37.336Z,10.20
2023-03-15T02:18:03.803Z,10.20
2023-03-15T02:20:30.302Z,10.20
2023-03-15T02:22:56.784Z,10.20
2023-03-15T02:25:23.415Z,10.20
2023-03-15T02:27:49.889Z,10.20
2023-03-15T02:30:16.381Z,10.20
2023-03-15T02:32:42.912Z,10.20
2023-03-15T02:35:09.448Z,10.20
2023-03-15T02:37:35.947Z,10.20
2023-03-15T02:40:02.438Z,10.20
2023-03-15T02:42:28.908Z,10.20
2023-03-15T02:44:55.390Z,10.20
2023-03-15T02:47:21.838Z,10.20
2023-03-15T02:49:48.314Z,10.20
2023-03-15T02:52:14.786Z,10.20
2023-03-15T02:54:41.247Z,10.20
2023-03-15T02:57:07.715Z,10.20
2023-03-15T02:59:34.171Z,10.20
2023-03-15T03:02:00.696Z,10.20
2023-03-15T03:04:27.237Z,10.20
2023-03-15T03:06:53.718Z,10.20
2023-03-15T03:09:20.179Z,10.20
2023-03-15T03:11:46.658Z,10.20
2023-03-15T03:14:13.115Z,10.20
2023-03-15T03:16:39.590Z,10.20
2023-03-15T03:19:06.084Z,10.20
2023-03-15T03:21:34.411Z,10.30
2023-03-15T03:24:00.889Z,10.20
2023-03-15T03:26:27.381Z,10.20
2023-03-15T03:28:53.872Z,10.20
2023-03-15T03:31:20.391Z,10.20
2023-03-15T03:33:46.876Z,10.20
2023-03-15T03:36:13.359Z,10.20
2023-03-15T03:38:39.845Z,10.20
2023-03-15T03:41:06.326Z,10.20
2023-03-15T03:43:32.808Z,10.20
2023-03-15T03:46:04.497Z,10.10
2023-03-15T03:48:31.051Z,10.20
2023-03-15T03:50:57.542Z,10.20
2023-03-15T03:53:24.020Z,10.20
2023-03-15T03:55:50.547Z,10.20
2023-03-15T03:58:17.012Z,10.20
2023-03-15T04:00:43.500Z,10.20
2023-03-15T04:03:09.939Z,10.20
2023-03-15T04:05:40.436Z,10.20
2023-03-15T04:08:06.911Z,10.20
2023-03-15T04:10:33.388Z,10.20
2023-03-15T04:12:59.874Z,10.20
2023-03-15T04:15:26.338Z,10.20
2023-03-15T04:17:52.809Z,10.20
2023-03-15T04:20:19.300Z,10.20
2023-03-15T04:22:45.783Z,10.20
2023-03-15T04:25:12.249Z,10.20
2023-03-15T04:27:38.742Z,10.30
2023-03-15T04:30:05.390Z,10.30
2023-03-15T04:32:32.182Z,10.30
2023-03-15T04:34:58.667Z,10.20
2023-03-15T04:37:25.132Z,10.20
2023-03-15T04:39:51.605Z,10.20
2023-03-15T04:42:18.099Z,10.20
2023-03-15T04:44:44.579Z,10.30
2023-03-15T04:47:11.176Z,10.20
2023-03-15T04:49:37.640Z,10.20
2023-03-15T04:52:04.117Z,10.20
2023-03-15T04:54:30.589Z,10.20
2023-03-15T04:56:57.058Z,10.20
2023-03-15T04:59:23.533Z,10.20
2023-03-15T05:01:50.045Z,10.30
2023-03-15T05:04:16.558Z,10.20
2023-03-15T05:06:43.036Z,10.20
2023-03-15T05:09:09.505Z,10.20
2023-03-15T05:11:35.994Z,10.20
2023-03-15T05:14:02.474Z,10.20
2023-03-15T05:16:28.990Z,10.30
2023-03-15T05:18:55.479Z,10.30
2023-03-15T05:21:21.964Z,10.20
2023-03-15T05:23:48.431Z,10.30
2023-03-15T05:26:14.931Z,10.20
2023-03-15T05:28:41.420Z,10.20
2023-03-15T05:31:10.525Z,10.30
2023-03-15T05:33:37.002Z,10.20
2023-03-15T05:36:03.466Z,10.30
2023-03-15T05:38:29.939Z,10.20
2023-03-15T05:40:56.427Z,10.20
2023-03-15T05:43:22.920Z,10.20
2023-03-15T05:45:49.505Z,10.20
2023-03-15T05:48:16.048Z,10.20
2023-03-15T05:50:42.556Z,10.20
2023-03-15T05:53:09.042Z,10.30
2023-03-15T05:55:35.531Z,10.20
2023-03-15T05:58:02.017Z,10.30
2023-03-15T06:00:28.516Z,10.30
2023-03-15T06:02:55.083Z,10.20
2023-03-15T06:05:21.739Z,10.20
2023-03-15T06:07:48.222Z,10.20
2023-03-15T06:10:14.714Z,10.30
2023-03-15T06:12:41.205Z,10.20
2023-03-15T06:15:07.729Z,10.30
2023-03-15T06:17:34.232Z,10.20
2023-03-15T06:20:00.699Z,10.20
2023-03-15T06:22:27.182Z,10.20
2023-03-15T06:24:53.670Z,10.30
2023-03-15T06:27:20.146Z,10.30
2023-03-15T06:29:46.621Z,10.30
2023-03-15T06:32:13.109Z,10.30
2023-03-15T06:34:39.592Z,10.20
2023-03-15T06:37:06.077Z,10.30
2023-03-15T06:39:32.557Z,10.30
2023-03-15T06:41:59.048Z,10.30
2023-03-15T06:44:25.534Z,10.30
2023-03-15T06:46:52.025Z,10.30
2023-03-15T06:49:22.742Z,10.20
2023-03-15T06:51:49.239Z,10.20
2023-03-15T06:54:15.722Z,10.20
2023-03-15T06:56:42.202Z,10.30
2023-03-15T06:59:08.674Z,10.20
2023-03-15T07:01:36.270Z,10.30
2023-03-15T07:04:02.752Z,10.30
2023-03-15T07:06:29.293Z,10.30
2023-03-15T07:08:55.776Z,10.30
2023-03-15T07:11:22.254Z,10.30
2023-03-15T07:13:48.725Z,10.30
2023-03-15T07:16:15.215Z,10.30
2023-03-15T07:18:41.701Z,10.30
2023-03-15T07:21:08.184Z,10.30
2023-03-15T07:23:40.780Z,10.30
2023-03-15T07:26:07.274Z,10.30
2023-03-15T07:28:33.765Z,10.30
2023-03-15T07:31:00.267Z,10.30
2023-03-15T07:33:26.846Z,10.30
2023-03-15T07:35:53.498Z,10.30
2023-03-15T07:38:20.099Z,10.20
2023-03-15T07:40:46.602Z,10.30
2023-03-15T07:43:13.075Z,10.20
2023-03-15T07:45:39.581Z,10.20
2023-03-15T07:48:06.072Z,10.30
2023-03-15T07:50:32.571Z,10.30
2023-03-15T07:52:59.047Z,10.30
2023-03-15T07:55:25.554Z,10.30
2023-03-15T07:57:53.312Z,10.30
2023-03-15T08:00:19.927Z,10.30
2023-03-15T08:02:46.473Z,10.30
2023-03-15T08:05:12.992Z,10.30
2023-03-15T08:07:39.475Z,10.30
2023-03-15T08:10:05.967Z,10.30
2023-03-15T08:12:32.462Z,10.30
2023-03-15T08:14:58.928Z,10.30
2023-03-15T08:17:25.397Z,10.30
2023-03-15T08:19:51.857Z,10.30
2023-03-15T08:22:18.369Z,10.30
2023-03-15T08:24:44.836Z,10.30
2023-03-15T08:27:11.299Z,10.30
2023-03-15T08:29:37.780Z,10.30
2023-03-15T08:32:04.281Z,10.30
2023-03-15T08:34:30.811Z,10.40
2023-03-15T08:36:57.320Z,10.30
2023-03-15T08:39:23.809Z,10.30
2023-03-15T08:41:50.290Z,10.30
2023-03-15T08:44:16.766Z,10.30
2023-03-15T08:46:43.293Z,10.30
2023-03-15T08:49:09.865Z,10.30
2023-03-15T08:51:36.368Z,10.30
2023-03-15T08:54:02.846Z,10.30
2023-03-15T08:56:34.692Z,10.30
2023-03-15T08:59:01.158Z,10.30
2023-03-15T09:01:27.633Z,10.30
2023-03-15T09:03:54.144Z,10.30
2023-03-15T09:06:20.663Z,10.30
2023-03-15T09:08:47.141Z,10.30
2023-03-15T09:11:13.631Z,10.30
2023-03-15T09:13:40.117Z,10.30
2023-03-15T09:16:06.604Z,10.30
2023-03-15T09:18:33.083Z,10.30
2023-03-15T09:20:59.565Z,10.30
2023-03-15T09:23:26.048Z,10.30
2023-03-15T09:25:52.545Z,10.40
2023-03-15T09:28:19.018Z,10.40
2023-03-15T09:30:45.535Z,10.40
2023-03-15T09:33:12.049Z,10.30
2023-03-15T09:35:38.571Z,10.40
2023-03-15T09:38:05.071Z,10.40
2023-03-15T09:40:31.548Z,10.30
2023-03-15T09:42:58.027Z,10.30
2023-03-15T09:45:24.756Z,10.40
2023-03-15T09:47:51.266Z,10.40
2023-03-15T09:50:17.755Z,10.40
2023-03-15T09:52:44.216Z,10.30
2023-03-15T09:55:10.725Z,10.30
2023-03-15T09:57:37.222Z,10.40
2023-03-15T10:00:03.696Z,10.40
2023-03-15T10:02:30.168Z,10.40
2023-03-15T10:04:56.633Z,10.40
2023-03-15T10:07:23.107Z,10.40
2023-03-15T10:09:49.590Z,10.40
2023-03-15T10:12:16.107Z,10.40
2023-03-15T10:14:42.593Z,10.40
2023-03-15T10:17:09.090Z,10.40
2023-03-15T10:19:35.545Z,10.40
2023-03-15T10:22:02.079Z,10.40
2023-03-15T10:24:28.526Z,10.40
2023-03-15T10:26:55.005Z,10.40
2023-03-15T10:29:21.485Z,10.40
2023-03-15T10:31:48.018Z,10.40
2023-03-15T10:34:14.503Z,10.40
2023-03-15T10:36:46.763Z,10.40
2023-03-15T10:39:13.225Z,10.40
2023-03-15T10:41:39.708Z,10.40
2023-03-15T10:44:06.183Z,10.40
2023-03-15T10:46:32.694Z,10.40
2023-03-15T10:48:59.223Z,10.40
2023-03-15T10:51:25.722Z,10.30
2023-03-15T10:53:52.208Z,10.40
2023-03-15T10:56:18.687Z,10.30
2023-03-15T10:58:45.172Z,10.40
2023-03-15T11:01:11.662Z,10.40
2023-03-15T11:03:38.146Z,10.40
2023-03-15T11:06:04.665Z,10.40
2023-03-15T11:08:31.129Z,10.40
2023-03-15T11:10:57.659Z,10.40
2023-03-15T11:13:24.144Z,10.40
2023-03-15T11:15:50.669Z,10.40
2023-03-15T11:18:17.158Z,10.40
2023-03-15T11:20:43.651Z,10.40
2023-03-15T11:23:10.122Z,10.40
2023-03-15T11:25:36.625Z,10.40
2023-03-15T11:28:03.103Z,10.40
2023-03-15T11:30:29.619Z,10.40
2023-03-15T11:32:56.102Z,10.40
2023-03-15T11:35:22.673Z,10.40
2023-03-15T11:37:49.175Z,10.50
2023-03-15T11:40:17.172Z,10.50
2023-03-15T11:42:43.889Z,10.50
2023-03-15T11:45:10.368Z,10.60
2023-03-15T11:47:40.829Z,10.60
2023-03-15T11:50:07.399Z,10.60
2023-03-15T11:52:33.870Z,10.70
2023-03-15T11:55:00.349Z,10.80
2023-03-15T11:57:26.838Z,10.80
2023-03-15T11:59:53.387Z,10.70
2023-03-15T12:02:19.957Z,10.70
2023-03-15T12:04:46.467Z,10.70
2023-03-15T12:07:12.942Z,10.70
2023-03-15T12:09:39.411Z,10.70
2023-03-15T12:12:05.927Z,10.60
2023-03-15T12:14:32.403Z,10.60
2023-03-15T12:16:58.953Z,10.60
2023-03-15T12:19:25.490Z,10.60
2023-03-15T12:21:52.172Z,10.60
2023-03-15T12:24:18.656Z,10.60
2023-03-15T12:26:45.134Z,10.60
2023-03-15T12:29:11.597Z,10.60
2023-03-15T12:31:38.078Z,10.60
2023-03-15T12:34:04.554Z,10.50
2023-03-15T12:36:31.017Z,10.60
2023-03-15T12:38:57.490Z,10.60
2023-03-15T12:41:23.987Z,10.60
2023-03-15T12:43:50.470Z,10.60
2023-03-15T12:46:16.988Z,10.60
2023-03-15T12:48:43.480Z,10.70
2023-03-15T12:51:10.882Z,10.60
2023-03-15T12:53:37.368Z,10.60
2023-03-15T12:56:08.804Z,10.60
2023-03-15T12:58:35.486Z,10.60
2023-03-15T13:01:02.061Z,10.60
2023-03-15T13:03:28.634Z,10.60
2023-03-15T13:06:03.292Z,10.60
2023-03-15T13:08:30.169Z,10.60
2023-03-15T13:10:56.675Z,10.60
2023-03-15T13:13:23.148Z,10.60
2023-03-15T13:15:52.924Z,10.60
2023-03-15T13:18:19.433Z,10.60
2023-03-15T13:20:45.966Z,10.60
2023-03-15T13:23:12.437Z,10.60
2023-03-15T13:25:38.923Z,10.60
2023-03-15T13:28:05.440Z,10.60
2023-03-15T13:30:31.925Z,10.60
2023-03-15T13:32:58.449Z,10.60
2023-03-15T13:35:24.977Z,10.60
2023-03-15T13:37:51.476Z,10.60
2023-03-15T13:40:17.937Z,10.60
2023-03-15T13:42:44.423Z,10.60
2023-03-15T13:45:10.890Z,10.60
2023-03-15T13:47:37.391Z,10.60
2023-03-15T13:50:03.877Z,10.60
2023-03-15T13:52:30.354Z,10.60
2023-03-15T13:54:56.835Z,10.60
2023-03-15T13:57:23.330Z,10.60
2023-03-15T13:59:49.828Z,10.60
2023-03-15T14:02:16.331Z,10.60
2023-03-15T14:04:42.820Z,10.60
2023-03-15T14:07:09.313Z,10.60
2023-03-15T14:09:35.805Z,10.60
2023-03-15T14:12:02.300Z,10.60
2023-03-15T14:14:28.787Z,10.60
2023-03-15T14:17:04.706Z,10.60
2023-03-15T14:19:32.041Z,10.60
2023-03-15T14:21:58.506Z,10.60
2023-03-15T14:24:24.984Z,10.60
2023-03-15T14:26:51.494Z,10.60
2023-03-15T14:29:18.218Z,10.60
2023-03-15T14:31:44.729Z,10.70
2023-03-15T14:34:11.330Z,10.60
2023-03-15T14:36:37.798Z,10.60
2023-03-15T14:39:04.443Z,10.60
2023-03-15T14:41:30.920Z,10.60
2023-03-15T14:43:57.396Z,10.60
2023-03-15T14:46:29.085Z,10.70
2023-03-15T14:48:55.556Z,10.60
2023-03-15T14:51:22.031Z,10.70
2023-03-15T14:53:48.512Z,10.70
2023-03-15T14:56:14.996Z,10.70
2023-03-15T14:58:41.468Z,10.70
2023-03-15T15:01:08.074Z,10.70
2023-03-15T15:03:34.627Z,10.70
2023-03-15T15:06:01.253Z,10.70
2023-03-15T15:08:27.756Z,10.70
2023-03-15T15:10:54.226Z,10.70
2023-03-15T15:13:20.732Z,10.70
2023-03-15T15:15:55.020Z,10.70
2023-03-15T15:18:21.958Z,10.70
2023-03-15T15:20:48.438Z,10.80
2023-03-15T15:23:14.951Z,10.90
2023-03-15T15:25:41.416Z,11.00
2023-03-15T15:28:07.902Z,11.10
2023-03-15T15:30:34.387Z,11.10
2023-03-15T15:33:00.926Z,11.10
2023-03-15T15:35:27.439Z,11.10
2023-03-15T15:37:59.172Z,11.00
2023-03-15T15:40:25.657Z,11.00
2023-03-15T15:42:52.138Z,11.00
2023-03-15T15:45:18.622Z,10.90
2023-03-15T15:47:45.164Z,10.90
2023-03-15T15:50:11.650Z,10.90
2023-03-15T15:52:38.235Z,10.90
2023-03-15T15:55:04.780Z,10.90
2023-03-15T15:57:31.256Z,10.90
2023-03-15T15:59:57.748Z,10.90
2023-03-15T16:02:24.386Z,10.90
2023-03-15T16:04:50.999Z,10.90
2023-03-15T16:07:17.489Z,10.90
2023-03-15T16:09:44.005Z,10.90
2023-03-15T16:12:10.495Z,10.90
2023-03-15T16:14:36.978Z,10.90
2023-03-15T16:17:03.456Z,10.90
2023-03-15T16:19:29.931Z,10.90
2023-03-15T16:21:56.401Z,10.90
2023-03-15T16:24:22.875Z,10.80
2023-03-15T16:26:49.491Z,10.80
2023-03-15T16:29:16.027Z,10.80
2023-03-15T16:31:42.492Z,10.80
2023-03-15T16:34:09.000Z,10.80
2023-03-15T16:36:35.497Z,10.80
2023-03-15T16:39:01.987Z,10.80
2023-03-15T16:41:28.480Z,10.80
2023-03-15T16:43:54.960Z,10.80
2023-03-15T16:46:21.454Z,10.80
2023-03-15T16:48:47.936Z,10.80
2023-03-15T16:51:14.427Z,10.80
2023-03-15T16:53:40.885Z,10.80
2023-03-15T16:56:07.329Z,10.80
2023-03-15T16:58:33.790Z,10.80
2023-03-15T17:01:00.255Z,10.80
2023-03-15T17:03:26.748Z,10.80
2023-03-15T17:05:53.223Z,10.80
2023-03-15T17:08:19.709Z,10.80
2023-03-15T17:10:46.196Z,10.80
2023-03-15T17:13:12.669Z,10.80
2023-03-15T17:15:39.151Z,10.80
2023-03-15T17:18:05.621Z,10.80
2023-03-15T17:20:32.126Z,10.70
2023-03-15T17:22:58.591Z,10.70
2023-03-15T17:25:25.112Z,10.80
2023-03-15T17:27:51.582Z,10.70
2023-03-15T17:30:18.093Z,10.70
2023-03-15T17:32:44.625Z,10.80
2023-03-15T17:35:11.147Z,10.70
2023-03-15T17:37:37.637Z,10.70
2023-03-15T17:40:04.121Z,10.70
2023-03-15T17:42:30.710Z,10.70
2023-03-15T17:44:57.193Z,10.80
2023-03-15T17:47:23.667Z,10.70
2023-03-15T17:49:50.118Z,10.70
2023-03-15T17:52:16.802Z,10.70
2023-03-15T17:54:43.336Z,10.70
2023-03-15T17:57:09.821Z,10.70
2023-03-15T17:59:36.285Z,10.70
2023-03-15T18:02:02.768Z,10.80
2023-03-15T18:04:35.323Z,10.70
2023-03-15T18:07:01.808Z,10.70
2023-03-15T18:09:28.274Z,10.70
2023-03-15T18:11:54.761Z,10.70
2023-03-15T18:14:21.240Z,10.70
2023-03-15T18:16:47.823Z,10.70
2023-03-15T18:19:14.436Z,10.60
2023-03-15T18:21:40.924Z,10.70
2023-03-15T18:24:07.412Z,10.70
2023-03-15T18:26:33.948Z,10.70
2023-03-15T18:29:00.490Z,10.70
2023-03-15T18:31:29.218Z,10.70
2023-03-15T18:33:55.722Z,10.70
2023-03-15T18:36:22.200Z,10.70
2023-03-15T18:38:48.721Z,10.70
2023-03-15T18:41:15.344Z,10.70
2023-03-15T18:43:41.835Z,10.70
2023-03-15T18:46:08.408Z,10.70
2023-03-15T18:48:40.845Z,10.70
2023-03-15T18:51:07.606Z,10.70
2023-03-15T18:53:34.139Z,10.70
2023-03-15T18:56:00.656Z,10.60
2023-03-15T18:58:27.128Z,10.70
2023-03-15T19:00:53.663Z,10.60
2023-03-15T19:03:20.179Z,10.60
2023-03-15T19:05:46.695Z,10.60
2023-03-15T19:08:13.179Z,10.70
2023-03-15T19:10:39.681Z,10.60
2023-03-15T19:13:06.167Z,10.70
2023-03-15T19:15:32.680Z,10.70
2023-03-15T19:17:59.168Z,10.60
2023-03-15T19:20:25.665Z,10.60
2023-03-15T19:22:52.155Z,10.60
2023-03-15T19:25:18.678Z,10.60
2023-03-15T19:27:45.160Z,10.60
2023-03-15T19:30:11.634Z,10.60
2023-03-15T19:32:38.124Z,10.60
2023-03-15T19:35:04.621Z,10.60
2023-03-15T19:37:31.092Z,10.60
2023-03-15T19:39:57.567Z,10.60
2023-03-15T19:42:24.040Z,10.60
2023-03-15T19:44:50.527Z,10.60
2023-03-15T19:47:16.991Z,10.60
2023-03-15T19:49:43.466Z,10.60
2023-03-15T19:52:09.937Z,10.60
2023-03-15T19:54:36.409Z,10.60
2023-03-15T19:57:02.916Z,10.60
2023-03-15T19:59:29.430Z,10.60
2023-03-15T20:01:56.004Z,10.60
2023-03-15T20:04:22.621Z,10.60
2023-03-15T20:06:49.221Z,10.50
2023-03-15T20:09:15.705Z,10.60
2023-03-15T20:11:42.169Z,10.50
2023-03-15T20:14:08.658Z,10.50
2023-03-15T20:16:35.124Z,10.50
2023-03-15T20:19:01.627Z,10.60
2023-03-15T20:21:28.092Z,10.50
2023-03-15T20:23:54.560Z,10.50
2023-03-15T20:26:21.052Z,10.50
2023-03-15T20:28:47.516Z,10.50
2023-03-15T20:31:14.019Z,10.50
2023-03-15T20:33:40.522Z,10.40
2023-03-15T20:36:07.018Z,10.40
2023-03-15T20:38:33.528Z,10.50
2023-03-15T20:41:00.006Z,10.50
2023-03-15T20:43:29.245Z,10.40
2023-03-15T20:45:55.745Z,10.40
2023-03-15T20:48:22.240Z,10.40
2023-03-15T20:50:48.735Z,10.50
2023-03-15T20:53:15.204Z,10.40
2023-03-15T20:55:41.726Z,10.40
2023-03-15T20:58:08.215Z,10.30
2023-03-15T21:00:34.717Z,10.30
2023-03-15T21:03:01.195Z,10.30
2023-03-15T21:05:27.689Z,10.30
2023-03-15T21:07:56.018Z,10.30
2023-03-15T21:10:22.703Z,10.30
2023-03-15T21:12:49.250Z,10.30
2023-03-15T21:15:15.727Z,10.30
2023-03-15T21:17:42.208Z,10.30
2023-03-15T21:20:08.698Z,10.20
2023-03-15T21:22:35.179Z,10.20
2023-03-15T21:25:01.641Z,10.20
2023-03-15T21:27:28.125Z,10.20
2023-03-15T21:29:54.616Z,10.20
2023-03-15T21:32:21.098Z,10.20
2023-03-15T21:34:47.582Z,10.20
2023-03-15T21:37:14.042Z,10.20
2023-03-15T21:39:40.511Z,10.20
2023-03-15T21:42:06.998Z,10.20
2023-03-15T21:44:33.472Z,10.20
2023-03-15T21:47:05.313Z,10.20
2023-03-15T21:49:31.776Z,10.10
2023-03-15T21:51:58.254Z,10.10
2023-03-15T21:54:24.721Z,10.10
2023-03-15T21:56:51.198Z,10.10
2023-03-15T21:59:17.691Z,10.10
2023-03-15T22:01:44.169Z,10.10
2023-03-15T22:04:10.672Z,10.10
2023-03-15T22:06:37.178Z,10.10
2023-03-15T22:09:03.659Z,10.10
2023-03-15T22:11:30.152Z,10.10
2023-03-15T22:13:56.615Z,10.00
2023-03-15T22:16:23.126Z,10.00
2023-03-15T22:18:49.632Z,10.00
2023-03-15T22:21:16.155Z,9.90
2023-03-15T22:23:42.661Z,9.90
2023-03-15T22:26:09.162Z,10.00
2023-03-15T22:28:35.651Z,9.90
2023-03-15T22:31:02.175Z,10.00
2023-03-15T22:33:28.646Z,10.00
2023-03-15T22:35:55.213Z,9.90
2023-03-15T22:38:21.710Z,9.90
2023-03-15T22:40:48.207Z,10.00
2023-03-15T22:43:14.680Z,10.00
2023-03-15T22:45:41.189Z,10.10
2023-03-15T22:48:07.654Z,10.00
2023-03-15T22:50:34.131Z,10.00
2023-03-15T22:53:00.625Z,10.00
2023-03-15T22:55:27.089Z,10.00
2023-03-15T22:57:53.578Z,9.90
2023-03-15T23:00:20.071Z,9.90
2023-03-15T23:02:46.553Z,9.90
2023-03-15T23:05:13.053Z,9.90
2023-03-15T23:07:39.546Z,9.90
2023-03-15T23:10:06.043Z,9.90
2023-03-15T23:12:36.292Z,9.90
2023-03-15T23:15:06.926Z,9.90
2023-03-15T23:17:33.420Z,9.90
2023-03-15T23:19:59.893Z,9.90
2023-03-15T23:22:26.389Z,9.80
2023-03-15T23:24:52.881Z,9.90
2023-03-15T23:27:19.364Z,9.80
2023-03-15T23:29:54.103Z,9.90
2023-03-15T23:32:21.501Z,9.90
2023-03-15T23:34:47.994Z,9.90
2023-03-15T23:37:14.508Z,9.90
2023-03-15T23:39:40.990Z,9.90
2023-03-15T23:42:11.396Z,9.90
2023-03-15T23:44:37.882Z,9.90
2023-03-15T23:47:04.393Z,9.90
2023-03-15T23:49:30.872Z,9.90
2023-03-15T23:51:57.388Z,9.90
2023-03-15T23:54:23.897Z,9.90
2023-03-15T23:56:50.386Z,9.90
2023-03-15T23:59:16.870Z,9.90
